Terminal Aerodrome Forecast
Issued by NWS Mt. Holly, NJ

Home | Current Version | Previous Version | Text Only | Print | Product List | Glossary On
Versions: 1 2 3 4 5 6 7 8 9 10 11 12 13 14 15 16 17 18 19 20 21 22 23 24 25 26 27 28 29 30 31 32 33 34
000
FTAK31 PANC 040529
TAFABE
TAF
PABE 040529Z 0406/0506 03015KT 6SM FU FEW080 BKN200
     FM041000 02008KT 6SM FU FEW080 BKN200
     FM041600 10012G18KT P6SM SCT025 SCT080 BKN200
     FM041900 10015G22KT P6SM VCSH BKN025 OVC080
     FM042100 10015G22KT 6SM -RA BR BKN020 OVC060=

USA.gov is the U.S. government's official web portal to all federal, state and local government web resources and services.